Time;durP1;ratioP1;P1;durP2;ratioP2;P2;SDS_P1;SDS_P2;PMS_P1;PMS_P2;Temp;Humidity;BMP_temperature;BMP_pressure;BME280_temperature;BME280_humidity;BME280_pressure;Samples;Min_cycle;Max_cycle;Signal;HPM_P1;HPM_P2
2023/04/06 00:00:50;;;;;;;16.50;9.40;;;;;;;1.42;83.57;94926.00;5031115;28;20241;-69
2023/04/06 00:03:15;;;;;;;17.10;9.03;;;;;;;1.58;82.18;94928.75;5015686;28;20695;-69
2023/04/06 00:05:41;;;;;;;15.73;9.50;;;;;;;1.64;82.12;94920.47;5014463;28;20233;-68
2023/04/06 00:08:07;;;;;;;15.87;8.87;;;;;;;1.65;81.19;94914.31;5013640;28;20230;-69
2023/04/06 00:10:32;;;;;;;16.33;9.03;;;;;;;1.67;80.99;94924.53;5006841;28;20335;-68
2023/04/06 00:12:59;;;;;;;13.67;8.73;;;;;;;1.57;81.44;94916.03;5005617;28;20241;-69
2023/04/06 00:15:24;;;;;;;13.87;8.83;;;;;;;1.52;81.30;94908.72;5016670;28;20257;-69
2023/04/06 00:17:50;;;;;;;14.73;8.77;;;;;;;1.71;80.56;94908.59;5007224;28;20226;-69
2023/04/06 00:20:16;;;;;;;15.80;9.30;;;;;;;1.59;80.84;94902.03;5012069;28;20777;-69
2023/04/06 00:22:41;;;;;;;15.43;9.13;;;;;;;1.50;81.46;94900.31;5019005;28;20698;-69
2023/04/06 00:25:07;;;;;;;14.37;8.93;;;;;;;1.84;80.81;94901.28;5007898;28;21327;-69
2023/04/06 00:27:33;;;;;;;15.47;9.03;;;;;;;1.81;79.53;94898.22;5011883;28;20234;-69
2023/04/06 00:29:58;;;;;;;17.97;9.30;;;;;;;1.79;80.16;94900.13;5029685;28;20306;-69
2023/04/06 00:32:24;;;;;;;15.50;9.23;;;;;;;1.84;80.39;94892.78;5012232;28;20283;-69
2023/04/06 00:34:49;;;;;;;16.60;9.17;;;;;;;1.66;80.00;94889.34;5020477;28;20265;-69
2023/04/06 00:37:15;;;;;;;14.83;8.83;;;;;;;1.91;80.27;94891.22;5000619;28;20238;-69
2023/04/06 00:39:40;;;;;;;15.60;9.40;;;;;;;2.00;79.89;94895.50;5025987;28;20751;-69
2023/04/06 00:42:11;;;;;;;16.37;9.27;;;;;;;1.82;79.82;94885.16;5034269;28;20237;-69
2023/04/06 00:44:36;;;;;;;17.30;8.93;;;;;;;1.81;80.73;94893.06;5037744;28;20248;-68
2023/04/06 00:47:02;;;;;;;15.37;8.93;;;;;;;1.74;80.12;94882.53;5021095;28;20237;-68
2023/04/06 00:49:27;;;;;;;17.00;10.03;;;;;;;1.83;80.51;94888.56;5022569;28;20237;-69
2023/04/06 00:51:53;;;;;;;15.50;9.23;;;;;;;1.86;80.25;94876.16;5019606;28;20223;-68
2023/04/06 00:54:18;;;;;;;15.70;9.17;;;;;;;1.86;80.54;94875.38;5030958;28;20237;-69
2023/04/06 00:56:44;;;;;;;15.23;8.90;;;;;;;1.95;80.24;94874.47;5031183;28;20237;-68
2023/04/06 00:59:10;;;;;;;15.63;8.60;;;;;;;1.91;79.13;94883.47;5017232;28;20258;-68
2023/04/06 01:01:36;;;;;;;16.97;9.07;;;;;;;2.05;79.42;94880.38;5032057;28;20312;-68
2023/04/06 01:04:02;;;;;;;15.73;9.13;;;;;;;1.96;78.74;94871.72;5037497;28;20225;-69
2023/04/06 01:06:28;;;;;;;14.10;8.23;;;;;;;1.91;79.52;94873.16;5034940;28;20614;-69
2023/04/06 01:08:53;;;;;;;13.80;8.50;;;;;;;2.01;78.72;94868.69;5034457;28;20719;-69
2023/04/06 01:11:19;;;;;;;16.13;8.70;;;;;;;1.96;79.39;94871.72;5025629;28;20233;-68
2023/04/06 01:13:45;;;;;;;14.10;8.13;;;;;;;1.88;78.45;94873.44;5010622;28;20231;-69
2023/04/06 01:16:10;;;;;;;14.00;8.33;;;;;;;1.81;79.37;94867.25;5038469;28;20864;-69
2023/04/06 01:18:37;;;;;;;13.27;7.93;;;;;;;1.92;79.48;94870.41;5003862;28;20736;-68
2023/04/06 01:21:02;;;;;;;15.23;8.83;;;;;;;1.98;78.72;94869.81;5019280;28;20247;-68
2023/04/06 01:23:28;;;;;;;14.03;8.87;;;;;;;2.17;80.17;94868.03;5019749;28;20268;-68
2023/04/06 01:25:53;;;;;;;16.93;9.73;;;;;;;1.93;79.88;94868.66;5017928;28;20316;-69
2023/04/06 01:28:19;;;;;;;15.53;9.50;;;;;;;1.89;80.65;94862.16;5031765;28;20230;-68
2023/04/06 01:30:44;;;;;;;16.40;9.67;;;;;;;1.89;80.58;94865.53;5018450;28;20233;-68
2023/04/06 01:33:10;;;;;;;16.80;9.17;;;;;;;1.90;80.54;94859.44;5033692;28;20233;-68
2023/04/06 01:35:36;;;;;;;15.53;8.63;;;;;;;2.00;81.08;94856.78;5017370;28;20261;-69
2023/04/06 01:38:01;;;;;;;16.93;9.20;;;;;;;2.03;80.64;94852.13;5019066;28;20230;-67
2023/04/06 01:40:27;;;;;;;17.77;9.90;;;;;;;2.02;80.88;94852.28;5000322;28;20239;-67
2023/04/06 01:42:52;;;;;;;16.73;9.50;;;;;;;2.02;81.27;94854.84;5023565;28;20312;-68
2023/04/06 01:45:18;;;;;;;15.53;8.97;;;;;;;1.99;81.52;94849.97;5033351;28;20724;-68
2023/04/06 01:47:46;;;;;;;15.33;9.13;;;;;;;2.04;81.51;94840.84;5020264;28;20773;-69
2023/04/06 01:50:11;;;;;;;15.97;9.10;;;;;;;2.08;80.83;94841.34;5013539;28;20233;-69
2023/04/06 01:52:37;;;;;;;14.17;8.87;;;;;;;1.99;79.94;94843.06;5009261;28;20241;-69
2023/04/06 01:55:03;;;;;;;14.77;9.40;;;;;;;2.01;81.07;94838.56;5023506;28;20419;-69
2023/04/06 01:57:28;;;;;;;15.50;8.97;;;;;;;1.86;82.21;94836.66;4996737;28;20313;-69
2023/04/06 01:59:54;;;;;;;16.60;9.47;;;;;;;1.77;81.93;94830.63;5031250;28;20607;-69
2023/04/06 02:02:19;;;;;;;15.37;9.20;;;;;;;1.89;81.74;94828.59;5010830;28;20234;-69
2023/04/06 02:04:45;;;;;;;15.03;9.10;;;;;;;1.78;82.20;94831.44;5030129;28;20222;-69
2023/04/06 02:07:10;;;;;;;13.73;8.23;;;;;;;1.69;82.04;94838.28;5009631;28;20317;-69
2023/04/06 02:09:36;;;;;;;16.37;9.40;;;;;;;1.77;82.28;94829.78;5015655;28;20228;-69
2023/04/06 02:12:02;;;;;;;18.83;10.07;;;;;;;1.84;82.43;94836.00;5007432;28;20233;-69
2023/04/06 02:14:27;;;;;;;15.53;9.50;;;;;;;1.75;83.45;94831.72;5014305;28;20257;-69
2023/04/06 02:16:53;;;;;;;16.47;9.53;;;;;;;1.82;83.77;94830.16;5036480;28;20233;-69
2023/04/06 02:19:18;;;;;;;16.50;8.97;;;;;;;1.98;83.31;94840.63;5036241;28;20302;-69
2023/04/06 02:21:44;;;;;;;16.37;9.33;;;;;;;1.93;83.16;94832.53;5005262;28;20238;-69
2023/04/06 02:24:09;;;;;;;17.50;10.10;;;;;;;1.92;83.47;94829.13;5004620;28;20228;-69
2023/04/06 02:26:35;;;;;;;15.33;9.20;;;;;;;1.80;83.31;94837.25;5007930;28;20238;-69
2023/04/06 02:29:01;;;;;;;14.43;8.93;;;;;;;2.00;82.81;94836.94;5015805;28;20225;-69
2023/04/06 02:31:27;;;;;;;16.70;9.20;;;;;;;2.04;82.52;94834.88;5014752;28;20233;-69
2023/04/06 02:33:53;;;;;;;14.97;9.00;;;;;;;1.90;82.80;94840.56;5017359;28;20307;-68
2023/04/06 02:36:18;;;;;;;16.43;8.53;;;;;;;1.85;82.31;94832.47;5002230;28;20242;-68
2023/04/06 02:38:43;;;;;;;16.80;9.87;;;;;;;1.91;82.56;94837.81;5007582;28;20677;-68
2023/04/06 02:41:09;;;;;;;13.40;8.13;;;;;;;1.92;81.75;94841.22;5015372;28;20229;-69
2023/04/06 02:43:35;;;;;;;17.20;8.87;;;;;;;2.07;82.37;94837.16;5003264;28;20230;-69
2023/04/06 02:46:00;;;;;;;14.90;8.53;;;;;;;1.97;81.89;94842.41;5034349;28;20835;-69
2023/04/06 02:48:26;;;;;;;14.30;8.60;;;;;;;2.14;81.61;94837.34;5007172;28;20236;-69
2023/04/06 02:50:51;;;;;;;14.77;8.70;;;;;;;2.05;80.69;94837.28;5017660;28;20233;-68
2023/04/06 02:53:17;;;;;;;15.73;8.70;;;;;;;2.07;81.64;94837.16;5019084;28;20248;-67
2023/04/06 02:55:42;;;;;;;15.13;8.90;;;;;;;1.84;81.85;94833.44;5012181;28;20237;-68
2023/04/06 02:58:08;;;;;;;15.10;8.07;;;;;;;1.87;82.17;94833.94;5017177;28;20233;-69
2023/04/06 03:00:33;;;;;;;13.37;8.43;;;;;;;1.80;82.31;94835.47;5013212;28;20318;-69
2023/04/06 03:02:59;;;;;;;16.00;8.20;;;;;;;2.00;81.58;94836.13;4996991;28;20238;-69
2023/04/06 03:05:24;;;;;;;14.33;8.13;;;;;;;1.91;81.19;94834.47;5023765;28;20230;-70
2023/04/06 03:07:50;;;;;;;15.53;8.20;;;;;;;1.78;81.36;94841.75;5018760;28;20222;-67
2023/04/06 03:10:15;;;;;;;14.33;8.10;;;;;;;1.80;81.70;94840.66;5008755;28;20328;-68
2023/04/06 03:12:41;;;;;;;13.00;8.03;;;;;;;1.93;81.60;94829.94;5032868;28;20734;-68
2023/04/06 03:15:07;;;;;;;17.23;8.30;;;;;;;1.97;80.79;94826.09;5017145;28;20819;-68
2023/04/06 03:17:33;;;;;;;16.47;9.03;;;;;;;2.09;80.90;94824.09;5015325;28;20634;-68
2023/04/06 03:19:58;;;;;;;13.57;8.00;;;;;;;2.11;80.23;94828.13;5008119;28;20233;-68
2023/04/06 03:22:24;;;;;;;14.27;8.03;;;;;;;2.11;80.64;94828.13;5011432;28;20230;-68
2023/04/06 03:24:50;;;;;;;13.27;7.73;;;;;;;2.07;79.81;94832.00;5019040;28;20791;-68
2023/04/06 03:27:15;;;;;;;12.10;7.47;;;;;;;2.01;79.38;94827.41;5027830;28;20233;-69
2023/04/06 03:29:41;;;;;;;13.27;8.07;;;;;;;2.05;80.21;94828.75;5023347;28;21488;-68
2023/04/06 03:32:06;;;;;;;13.83;8.17;;;;;;;2.08;79.40;94820.69;5012321;28;20629;-69
2023/04/06 03:34:32;;;;;;;15.20;8.40;;;;;;;2.14;79.68;94830.44;5005296;28;20284;-69
2023/04/06 03:36:57;;;;;;;14.40;8.27;;;;;;;2.11;79.89;94820.41;5000553;28;20236;-69
2023/04/06 03:39:23;;;;;;;13.20;7.50;;;;;;;2.05;79.43;94821.00;5030799;28;20738;-69
2023/04/06 03:41:48;;;;;;;12.77;7.30;;;;;;;2.05;79.75;94828.75;5004724;28;20226;-69
2023/04/06 03:44:14;;;;;;;15.57;8.00;;;;;;;2.11;78.78;94825.56;5018388;28;20238;-68
2023/04/06 03:46:40;;;;;;;12.20;7.13;;;;;;;2.14;79.19;94827.84;5011593;28;20241;-68
2023/04/06 03:49:05;;;;;;;13.20;7.40;;;;;;;2.13;79.30;94821.06;5027578;28;20240;-68
2023/04/06 03:51:31;;;;;;;15.27;8.20;;;;;;;2.19;79.00;94817.88;5027243;28;20620;-69
2023/04/06 03:53:56;;;;;;;14.70;7.90;;;;;;;2.17;78.74;94814.66;5006086;28;20261;-69
2023/04/06 03:56:21;;;;;;;13.80;7.90;;;;;;;2.12;79.07;94822.03;5027617;28;20225;-69
2023/04/06 03:58:50;;;;;;;16.70;9.03;;;;;;;2.24;79.87;94832.91;5015699;28;20694;-70
2023/04/06 04:01:17;;;;;;;19.87;10.37;;;;;;;2.08;81.76;94825.06;5030205;28;20261;-70
2023/04/06 04:03:43;;;;;;;15.53;9.07;;;;;;;2.01;81.99;94824.84;5027544;28;20237;-69
2023/04/06 04:06:09;;;;;;;15.43;8.80;;;;;;;1.90;82.07;94822.50;4997457;28;20226;-70
2023/04/06 04:08:35;;;;;;;16.07;9.53;;;;;;;1.98;82.32;94822.56;5022445;28;20803;-70
2023/04/06 04:11:01;;;;;;;20.27;10.73;;;;;;;2.05;82.64;94826.97;5017545;28;20230;-70
2023/04/06 04:13:26;;;;;;;18.60;10.30;;;;;;;2.05;82.62;94829.53;5013263;28;20229;-70
2023/04/06 04:15:52;;;;;;;19.00;9.77;;;;;;;2.22;81.90;94820.13;4999062;28;20225;-69
2023/04/06 04:18:18;;;;;;;18.87;9.83;;;;;;;2.25;81.17;94825.00;5032112;28;20341;-70
2023/04/06 04:20:44;;;;;;;16.10;9.00;;;;;;;2.14;80.86;94830.44;5012493;28;20771;-70
2023/04/06 04:23:09;;;;;;;18.53;9.93;;;;;;;2.28;81.31;94827.28;5005745;28;20812;-69
2023/04/06 04:25:35;;;;;;;17.97;9.57;;;;;;;2.23;81.78;94826.13;4992790;28;20743;-70
2023/04/06 04:28:00;;;;;;;16.50;9.30;;;;;;;2.22;81.48;94827.88;4997997;28;20221;-70
2023/04/06 04:30:26;;;;;;;17.20;9.40;;;;;;;2.22;81.26;94827.88;5000564;28;20237;-70
2023/04/06 04:32:51;;;;;;;16.33;8.80;;;;;;;2.21;80.47;94825.47;5031229;28;20214;-69
2023/04/06 04:35:17;;;;;;;16.67;9.07;;;;;;;2.23;80.14;94826.94;5002371;28;20626;-70
2023/04/06 04:37:43;;;;;;;20.00;10.00;;;;;;;2.35;79.73;94833.47;5009532;28;20248;-70
2023/04/06 04:40:09;;;;;;;17.60;9.67;;;;;;;2.45;79.75;94828.22;5022109;28;20624;-70
2023/04/06 04:42:34;;;;;;;18.07;9.83;;;;;;;2.49;79.88;94829.50;5032862;28;20737;-69
2023/04/06 04:45:00;;;;;;;19.17;10.30;;;;;;;2.58;80.55;94826.81;5011323;28;20235;-68
2023/04/06 04:47:25;;;;;;;21.40;10.47;;;;;;;2.57;79.50;94835.56;5026672;28;20217;-68
2023/04/06 04:49:51;;;;;;;18.73;9.80;;;;;;;2.43;80.26;94823.22;5015214;28;20249;-70
2023/04/06 04:52:16;;;;;;;19.50;10.03;;;;;;;2.40;80.72;94833.00;5014463;28;20603;-70
2023/04/06 04:54:42;;;;;;;19.70;8.93;;;;;;;2.48;79.86;94830.50;5005380;28;20235;-70
2023/04/06 04:57:08;;;;;;;18.63;9.33;;;;;;;2.45;79.33;94828.22;5005762;28;20226;-68
2023/04/06 04:59:34;;;;;;;17.33;9.00;;;;;;;2.41;79.09;94834.66;5003092;28;20797;-70
2023/04/06 05:02:00;;;;;;;16.23;9.00;;;;;;;2.55;78.23;94836.66;5029529;28;20234;-70
2023/04/06 05:04:26;;;;;;;15.83;8.90;;;;;;;2.50;78.47;94833.72;4996790;28;20308;-69
2023/04/06 05:07:02;;;;;;;16.20;8.83;;;;;;;2.45;78.55;94831.59;5015463;28;20251;-69
2023/04/06 05:09:29;;;;;;;17.10;9.03;;;;;;;2.40;78.36;94818.34;5019394;28;20367;-70
2023/04/06 05:11:55;;;;;;;17.10;9.00;;;;;;;2.43;79.16;94824.97;4996819;28;20311;-69
2023/04/06 05:14:21;;;;;;;19.30;9.47;;;;;;;2.48;79.14;94823.56;5021577;28;20287;-70
2023/04/06 05:16:46;;;;;;;16.10;8.90;;;;;;;2.49;78.50;94825.16;5031141;28;20310;-70
2023/04/06 05:19:12;;;;;;;18.33;9.13;;;;;;;2.38;79.57;94828.00;5010753;28;20226;-70
2023/04/06 05:21:37;;;;;;;15.73;9.37;;;;;;;2.43;79.89;94830.13;5005360;28;20299;-69
2023/04/06 05:24:03;;;;;;;17.87;9.27;;;;;;;2.40;79.47;94831.25;5004927;28;20234;-69
2023/04/06 05:26:29;;;;;;;17.33;9.30;;;;;;;2.43;79.62;94833.53;5007762;28;20254;-69
2023/04/06 05:28:54;;;;;;;17.27;9.10;;;;;;;2.58;79.77;94833.78;5019814;28;20297;-70
2023/04/06 05:31:20;;;;;;;17.77;10.13;;;;;;;2.44;80.60;94837.72;5016468;28;20308;-69
2023/04/06 05:33:45;;;;;;;18.93;10.10;;;;;;;2.43;80.33;94827.56;5014475;28;20221;-69
2023/04/06 05:36:20;;;;;;;21.20;10.57;;;;;;;2.51;80.18;94825.00;5034020;28;20237;-70
2023/04/06 05:38:46;;;;;;;22.20;11.40;;;;;;;2.43;81.37;94825.78;5015881;28;20302;-70
2023/04/06 05:41:12;;;;;;;23.27;11.37;;;;;;;2.48;81.88;94823.56;5004311;28;20667;-71
2023/04/06 05:43:37;;;;;;;24.17;12.07;;;;;;;2.37;81.91;94822.97;5031391;28;20234;-73
2023/04/06 05:46:04;;;;;;;20.43;10.70;;;;;;;2.63;80.50;94824.59;5031741;28;20253;-71
2023/04/06 05:48:29;;;;;;;19.47;10.43;;;;;;;2.38;81.45;94825.44;5048635;28;20367;-70
2023/04/06 05:50:55;;;;;;;21.80;10.90;;;;;;;2.43;81.66;94822.38;5034641;28;20233;-70
2023/04/06 05:53:21;;;;;;;19.43;10.10;;;;;;;2.40;81.32;94820.09;5030014;28;20246;-71
2023/04/06 05:55:46;;;;;;;23.17;11.50;;;;;;;2.63;81.41;94818.59;5017837;28;20302;-71
2023/04/06 05:58:12;;;;;;;22.87;11.57;;;;;;;2.66;81.64;94820.91;5035724;28;20230;-72
2023/04/06 06:00:37;;;;;;;21.77;11.97;;;;;;;2.53;81.82;94818.72;5033984;28;20234;-70
2023/04/06 06:03:08;;;;;;;23.57;12.20;;;;;;;2.45;82.15;94826.44;5019975;28;20244;-71
2023/04/06 06:05:34;;;;;;;22.30;11.77;;;;;;;2.48;82.03;94820.16;5016361;28;20778;-71
2023/04/06 06:08:01;;;;;;;24.90;12.53;;;;;;;2.51;82.35;94812.91;5033242;28;20264;-71
2023/04/06 06:10:27;;;;;;;25.27;12.37;;;;;;;2.59;82.02;94817.31;5013813;28;20245;-71
2023/04/06 06:12:53;;;;;;;26.00;12.80;;;;;;;2.75;82.39;94814.00;5034018;28;20225;-72
2023/04/06 06:15:18;;;;;;;28.17;13.43;;;;;;;2.56;82.59;94815.03;5017074;28;20241;-71
2023/04/06 06:17:46;;;;;;;24.37;13.10;;;;;;;2.55;82.54;94816.81;5015395;28;20221;-72
2023/04/06 06:20:12;;;;;;;26.93;13.13;;;;;;;2.57;82.55;94809.72;5014234;28;20738;-70
2023/04/06 06:22:39;;;;;;;21.37;11.33;;;;;;;2.56;82.50;94818.41;5021979;28;20229;-71
2023/04/06 06:25:05;;;;;;;24.47;12.53;;;;;;;2.50;82.11;94821.63;5025640;28;20234;-71
2023/04/06 06:27:31;;;;;;;22.47;11.33;;;;;;;2.49;81.84;94809.66;5029900;28;20300;-72
2023/04/06 06:29:56;;;;;;;20.57;11.57;;;;;;;2.56;82.06;94818.41;5019774;28;20295;-71
2023/04/06 06:32:22;;;;;;;25.27;11.93;;;;;;;2.54;81.33;94815.19;5030839;28;21019;-71
2023/04/06 06:34:47;;;;;;;23.83;12.10;;;;;;;2.64;81.98;94810.72;5018768;28;20288;-69
2023/04/06 06:37:13;;;;;;;23.37;11.97;;;;;;;3.06;80.23;94810.72;5017978;28;20726;-69
2023/04/06 06:39:38;;;;;;;23.40;11.63;;;;;;;2.90;80.69;94809.84;5018534;28;20244;-70
2023/04/06 06:42:04;;;;;;;22.93;11.80;;;;;;;2.80;81.23;94809.97;5019633;28;20301;-70
2023/04/06 06:44:29;;;;;;;25.77;12.50;;;;;;;2.99;80.91;94811.50;5023384;28;20230;-70
2023/04/06 06:46:55;;;;;;;23.07;11.60;;;;;;;2.98;80.27;94815.06;5007676;28;20233;-70
2023/04/06 06:49:21;;;;;;;21.87;11.53;;;;;;;3.10;80.16;94816.41;5021183;28;20253;-70
2023/04/06 06:51:46;;;;;;;22.33;10.80;;;;;;;2.93;80.05;94810.38;5016809;28;20627;-70
2023/04/06 06:54:12;;;;;;;22.77;11.43;;;;;;;2.98;79.60;94821.06;5005078;28;20606;-69
2023/04/06 06:56:38;;;;;;;23.93;11.30;;;;;;;3.09;79.35;94825.94;5003483;28;20375;-70
2023/04/06 06:59:04;;;;;;;22.00;12.03;;;;;;;3.28;78.97;94830.84;5004027;28;20287;-70
2023/04/06 07:01:32;;;;;;;24.70;12.53;;;;;;;3.29;79.46;94818.72;5017482;28;20729;-70
2023/04/06 07:03:58;;;;;;;25.83;12.30;;;;;;;3.78;78.44;94811.84;5016183;28;20257;-69
2023/04/06 07:06:23;;;;;;;21.37;12.00;;;;;;;4.08;76.47;94817.19;5020183;28;20317;-70
2023/04/06 07:08:49;;;;;;;25.73;12.47;;;;;;;4.08;76.83;94809.41;5021384;28;20226;-70
2023/04/06 07:11:14;;;;;;;21.83;12.13;;;;;;;4.37;75.45;94813.28;5016774;28;20260;-69
2023/04/06 07:13:40;;;;;;;24.90;12.53;;;;;;;4.37;75.29;94816.66;5025499;28;20247;-69
2023/04/06 07:16:05;;;;;;;25.63;12.80;;;;;;;4.21;76.30;94821.06;5019118;28;20707;-69
2023/04/06 07:18:31;;;;;;;22.33;11.37;;;;;;;4.24;75.00;94818.97;4998492;28;20730;-69
2023/04/06 07:20:57;;;;;;;21.67;11.50;;;;;;;4.51;75.02;94807.44;5016700;28;20233;-70
2023/04/06 07:23:22;;;;;;;22.40;12.30;;;;;;;4.57;74.62;94810.16;5004126;28;20264;-69
2023/04/06 07:25:50;;;;;;;20.10;11.10;;;;;;;4.45;74.02;94813.25;5016747;28;20719;-69
2023/04/06 07:28:16;;;;;;;19.40;10.80;;;;;;;4.16;74.78;94812.97;5028329;28;21061;-69
2023/04/06 07:30:41;;;;;;;19.83;10.80;;;;;;;3.96;75.08;94810.69;5019860;28;20217;-69
2023/04/06 07:33:07;;;;;;;23.23;11.47;;;;;;;4.67;74.00;94815.16;5031504;28;20703;-70
2023/04/06 07:35:33;;;;;;;24.70;11.63;;;;;;;4.58;73.55;94805.78;5007519;28;20286;-69
2023/04/06 07:37:58;;;;;;;22.83;11.83;;;;;;;4.78;74.45;94814.00;5005394;28;20245;-68
2023/04/06 07:40:24;;;;;;;22.83;11.90;;;;;;;4.83;73.48;94806.50;4994821;28;20292;-69
2023/04/06 07:42:50;;;;;;;24.33;13.07;;;;;;;4.61;74.00;94803.66;5013378;28;20305;-70
2023/04/06 07:45:15;;;;;;;21.80;11.60;;;;;;;4.43;74.31;94810.03;5013909;28;20341;-69
2023/04/06 07:47:41;;;;;;;24.67;11.87;;;;;;;4.81;72.65;94804.09;5030000;28;20287;-70
2023/04/06 07:50:07;;;;;;;23.27;11.40;;;;;;;4.99;71.37;94820.22;5031962;28;20755;-70
2023/04/06 07:52:32;;;;;;;22.33;11.27;;;;;;;4.91;72.54;94806.50;5020052;28;20238;-69
2023/04/06 07:54:58;;;;;;;22.80;11.67;;;;;;;5.29;71.59;94808.28;5028559;28;20662;-69
2023/04/06 07:57:24;;;;;;;20.03;11.70;;;;;;;5.17;72.27;94812.22;5013474;28;20279;-69
2023/04/06 07:59:50;;;;;;;22.53;11.20;;;;;;;5.06;72.38;94804.81;5016719;28;20336;-70
2023/04/06 08:02:15;;;;;;;21.73;11.50;;;;;;;5.32;71.18;94800.16;4991899;28;20735;-70
2023/04/06 08:04:44;;;;;;;21.23;11.50;;;;;;;5.61;69.83;94804.69;5013916;28;20241;-68
2023/04/06 08:07:10;;;;;;;22.40;11.30;;;;;;;5.72;70.33;94806.88;5020749;28;20918;-70
2023/04/06 08:09:35;;;;;;;20.53;11.33;;;;;;;6.17;68.73;94798.28;4999925;28;20245;-70
2023/04/06 08:12:01;;;;;;;18.13;10.67;;;;;;;6.10;68.33;94803.38;5019471;28;20228;-70
2023/04/06 08:14:26;;;;;;;20.93;10.93;;;;;;;5.95;68.73;94803.34;5000477;28;20818;-70
2023/04/06 08:16:52;;;;;;;18.43;10.47;;;;;;;6.23;67.80;94811.41;5018144;28;20226;-69
2023/04/06 08:19:18;;;;;;;17.57;9.90;;;;;;;6.07;67.20;94806.31;4998035;28;20304;-69
2023/04/06 08:21:47;;;;;;;16.57;8.77;;;;;;;5.81;65.62;94805.84;5012580;28;20287;-68
2023/04/06 08:24:13;;;;;;;17.73;9.67;;;;;;;5.93;67.07;94810.50;5030400;28;20226;-68
2023/04/06 08:26:38;;;;;;;16.33;9.50;;;;;;;5.75;67.42;94820.34;5006633;28;20237;-69
2023/04/06 08:29:04;;;;;;;21.40;9.57;;;;;;;5.55;68.02;94806.19;4992884;28;20703;-69
2023/04/06 08:31:30;;;;;;;18.13;9.67;;;;;;;5.52;67.93;94808.34;5028724;28;20222;-69
2023/04/06 08:33:55;;;;;;;18.40;10.00;;;;;;;5.43;69.00;94804.94;5000183;28;20256;-69
2023/04/06 08:36:22;;;;;;;17.90;9.60;;;;;;;5.79;66.85;94819.00;5011759;28;20233;-70
2023/04/06 08:38:48;;;;;;;16.93;9.87;;;;;;;6.07;66.48;94814.13;5020788;28;20229;-70
2023/04/06 08:41:14;;;;;;;17.53;9.70;;;;;;;6.02;65.67;94808.63;5018115;28;20239;-69
2023/04/06 08:43:46;;;;;;;17.50;10.23;;;;;;;6.12;66.51;94801.41;5010982;28;20233;-69
2023/04/06 08:46:12;;;;;;;20.90;9.77;;;;;;;6.35;65.64;94799.59;5012585;28;20233;-69
2023/04/06 08:48:41;;;;;;;17.60;9.20;;;;;;;6.16;65.53;94814.88;4998033;28;20233;-70
2023/04/06 08:51:07;;;;;;;16.43;9.00;;;;;;;6.23;65.59;94815.78;5026017;28;20641;-70
2023/04/06 08:53:33;;;;;;;18.03;9.70;;;;;;;6.17;66.29;94814.69;5007700;28;20238;-69
2023/04/06 08:55:58;;;;;;;18.03;9.83;;;;;;;5.97;66.56;94808.38;4999600;28;20257;-70
2023/04/06 08:58:24;;;;;;;15.93;9.73;;;;;;;6.14;66.47;94807.25;5010313;28;20313;-70
2023/04/06 09:00:50;;;;;;;18.53;10.60;;;;;;;6.34;65.75;94817.97;5015807;28;20236;-69
2023/04/06 09:03:15;;;;;;;17.47;9.67;;;;;;;6.06;66.36;94807.31;5014860;28;20648;-69
2023/04/06 09:05:41;;;;;;;17.13;9.50;;;;;;;6.20;65.72;94800.53;5003870;28;20242;-69
2023/04/06 09:08:06;;;;;;;15.87;9.60;;;;;;;6.75;64.23;94806.19;5013988;28;20864;-69
2023/04/06 09:10:32;;;;;;;15.70;9.83;;;;;;;6.98;63.95;94803.47;5008057;28;20905;-69
2023/04/06 09:13:08;;;;;;;17.00;9.80;;;;;;;6.98;62.31;94800.88;5026185;28;20259;-69
2023/04/06 09:15:33;;;;;;;14.53;8.73;;;;;;;6.73;62.41;94795.94;5014478;28;20250;-70
2023/04/06 09:17:59;;;;;;;19.00;9.30;;;;;;;7.13;61.95;94802.50;5018703;28;20272;-70
2023/04/06 09:20:26;;;;;;;16.03;9.60;;;;;;;7.10;62.35;94800.25;5016550;28;20243;-69
2023/04/06 09:22:51;;;;;;;15.23;8.63;;;;;;;6.88;62.12;94795.16;5011072;28;20236;-70
2023/04/06 09:25:22;;;;;;;18.10;9.20;;;;;;;6.85;62.25;94791.13;5003393;28;20218;-70
2023/04/06 09:27:48;;;;;;;17.80;9.63;;;;;;;7.19;62.09;94799.16;5014985;28;20224;-70
2023/04/06 09:30:15;;;;;;;16.93;9.27;;;;;;;6.99;61.58;94797.31;5034395;28;20237;-70
2023/04/06 09:32:59;;;;;;;15.77;9.93;;;;;;;7.18;62.38;94794.16;5033616;28;20341;-68
2023/04/06 09:35:26;;;;;;;17.57;9.80;;;;;;;7.31;61.87;94802.09;5037262;28;20233;-69
2023/04/06 09:37:52;;;;;;;13.97;8.87;;;;;;;6.70;62.92;94796.31;5007094;28;20226;-69
2023/04/06 09:40:18;;;;;;;17.80;9.90;;;;;;;7.43;61.66;94798.03;5000861;28;20292;-69
2023/04/06 09:42:47;;;;;;;14.80;8.90;;;;;;;7.32;61.14;94788.09;5001303;28;20241;-69
2023/04/06 09:45:13;;;;;;;17.80;10.17;;;;;;;8.04;60.61;94794.06;5019946;28;20339;-70
2023/04/06 09:47:40;;;;;;;16.93;9.70;;;;;;;7.19;61.59;94793.13;5016425;28;20790;-70
2023/04/06 09:50:05;;;;;;;18.70;9.83;;;;;;;7.11;61.96;94783.66;5013750;28;20292;-70
2023/04/06 09:52:40;;;;;;;18.27;9.50;;;;;;;7.33;60.98;94789.72;5017722;28;20653;-68
2023/04/06 09:55:07;;;;;;;15.93;9.60;;;;;;;7.44;62.28;94791.84;5049357;28;20238;-70
2023/04/06 09:57:50;;;;;;;16.10;9.17;;;;;;;7.37;61.11;94796.19;5009516;28;20230;-70
2023/04/06 10:00:18;;;;;;;18.10;10.00;;;;;;;7.29;60.93;94793.66;5015992;28;20241;-69
2023/04/06 10:02:59;;;;;;;16.53;9.67;;;;;;;6.98;61.84;94795.69;5015185;28;20269;-70
2023/04/06 10:05:54;;;;;;;15.63;8.80;;;;;;;6.79;61.90;94803.03;5019883;28;20234;-69
2023/04/06 10:08:19;;;;;;;16.43;8.73;;;;;;;6.83;61.39;94792.28;5029429;28;20598;-69
2023/04/06 10:10:45;;;;;;;18.20;10.00;;;;;;;7.14;61.95;94787.69;4997113;28;20781;-69
2023/04/06 10:13:11;;;;;;;17.60;9.60;;;;;;;7.15;61.18;94794.50;5005338;28;20227;-70
2023/04/06 10:15:37;;;;;;;15.10;8.13;;;;;;;6.82;61.01;94801.06;4999102;28;20329;-70
2023/04/06 10:18:03;;;;;;;14.30;8.47;;;;;;;7.07;61.36;94789.41;5001085;28;20276;-69
2023/04/06 10:20:36;;;;;;;16.33;9.80;;;;;;;7.68;60.21;94796.72;4999798;28;20239;-70
2023/04/06 10:23:06;;;;;;;17.47;9.07;;;;;;;7.43;60.09;94793.66;5016745;28;20227;-69
2023/04/06 10:25:32;;;;;;;15.60;9.07;;;;;;;7.63;59.49;94780.03;5004986;28;20333;-69
2023/04/06 10:28:09;;;;;;;17.80;9.53;;;;;;;7.31;60.44;94771.69;4982499;28;20243;-68
2023/04/06 10:30:35;;;;;;;16.23;9.00;;;;;;;6.86;61.38;94776.31;4988418;28;20245;-70
2023/04/06 10:33:01;;;;;;;14.40;8.80;;;;;;;7.73;60.20;94776.13;4987043;28;20234;-70
2023/04/06 10:35:38;;;;;;;17.13;9.43;;;;;;;7.60;59.00;94783.00;4981774;28;20242;-70
2023/04/06 10:38:04;;;;;;;14.47;9.13;;;;;;;7.55;58.48;94786.16;5003796;28;20241;-69
2023/04/06 10:40:31;;;;;;;13.80;8.40;;;;;;;7.09;58.99;94783.03;5002708;28;20258;-69
2023/04/06 10:43:07;;;;;;;16.47;9.27;;;;;;;6.93;61.08;94777.19;5015764;28;20222;-69
2023/04/06 10:45:32;;;;;;;13.83;8.63;;;;;;;7.17;59.67;94764.69;5001271;28;20620;-70
2023/04/06 10:47:58;;;;;;;16.30;9.10;;;;;;;7.41;59.64;94774.81;5032115;28;20221;-69
2023/04/06 10:50:23;;;;;;;13.37;8.80;;;;;;;7.26;60.47;94770.63;5013838;28;20273;-70
2023/04/06 10:52:59;;;;;;;14.00;9.00;;;;;;;7.17;60.41;94774.31;5007794;28;20233;-70
2023/04/06 10:55:26;;;;;;;15.00;9.17;;;;;;;7.59;60.53;94779.59;5004308;28;20238;-68
2023/04/06 10:57:51;;;;;;;16.33;8.80;;;;;;;7.95;60.20;94767.31;5032733;28;20236;-68
2023/04/06 11:00:19;;;;;;;14.20;8.93;;;;;;;8.06;57.81;94772.03;5015712;28;20238;-69
2023/04/06 11:02:44;;;;;;;12.07;7.63;;;;;;;7.49;57.58;94773.88;5008478;28;20749;-69
2023/04/06 11:05:11;;;;;;;14.70;9.13;;;;;;;7.53;58.42;94776.91;5030876;28;20237;-69
2023/04/06 11:07:36;;;;;;;13.40;8.57;;;;;;;7.36;59.15;94769.34;5017477;28;20301;-69
2023/04/06 11:10:02;;;;;;;15.20;8.87;;;;;;;7.45;59.41;94754.41;5015886;28;20608;-70
2023/04/06 11:12:28;;;;;;;15.33;9.20;;;;;;;7.58;59.77;94762.34;5030789;28;20317;-69
2023/04/06 11:15:04;;;;;;;14.77;9.30;;;;;;;7.47;58.71;94757.66;5033860;28;21241;-69
2023/04/06 11:17:34;;;;;;;14.77;8.77;;;;;;;7.58;58.07;94757.16;5002228;28;20233;-69
2023/04/06 11:19:59;;;;;;;15.93;9.53;;;;;;;7.84;58.04;94756.59;5016507;28;20233;-70
2023/04/06 11:22:25;;;;;;;14.97;9.00;;;;;;;7.64;58.25;94756.41;5007756;28;20226;-69
2023/04/06 11:24:51;;;;;;;16.07;8.50;;;;;;;7.42;57.94;94760.81;5009144;28;20240;-70
2023/04/06 11:27:17;;;;;;;13.93;8.40;;;;;;;7.71;58.43;94746.88;5019279;28;20264;-70